Time;durP1;ratioP1;P1;durP2;ratioP2;P2;SDS_P1;SDS_P2;PMS_P1;PMS_P2;Temp;Humidity;BMP_temperature;BMP_pressure;BME280_temperature;BME280_humidity;BME280_pressure;Samples;Min_cycle;Max_cycle;Signal;HPM_P1;HPM_P2
2022/02/13 00:01:42;0.00;0.00;0.62;0.00;0.00;0.62;2.07;1.20;;;22.00;25.80;;;;;;2242440;62;20434;-61
2022/02/13 00:04:27;0.00;0.00;0.62;0.00;0.00;0.62;1.70;1.00;;;22.00;25.80;;;;;;2241872;62;20402;-62
2022/02/13 00:07:12;0.00;0.00;0.62;0.00;0.00;0.62;2.23;1.10;;;22.00;25.80;;;;;;2241279;62;20434;-61
2022/02/13 00:09:57;0.00;0.00;0.62;0.00;0.00;0.62;2.27;1.20;;;22.00;25.80;;;;;;2241795;62;20410;-62
2022/02/13 00:12:42;0.00;0.00;0.62;0.00;0.00;0.62;2.43;0.90;;;22.00;25.80;;;;;;2241182;62;20358;-61
2022/02/13 00:15:28;0.00;0.00;0.62;0.00;0.00;0.62;1.90;1.17;;;22.00;25.80;;;;;;2241572;62;20738;-62
2022/02/13 00:18:13;0.00;0.00;0.62;0.00;0.00;0.62;1.80;0.90;;;22.00;25.80;;;;;;2241336;62;20466;-63
2022/02/13 00:20:58;0.00;0.00;0.62;0.00;0.00;0.62;1.80;1.17;;;22.00;25.80;;;;;;2241248;62;20609;-62
2022/02/13 00:23:42;0.00;0.00;0.62;0.00;0.00;0.62;1.50;1.00;;;22.00;25.80;;;;;;2242294;62;20395;-63
2022/02/13 00:26:27;0.00;0.00;0.62;0.00;0.00;0.62;2.07;1.03;;;22.00;25.80;;;;;;2241826;62;20373;-63
2022/02/13 00:29:12;0.00;0.00;0.62;0.00;0.00;0.62;1.87;1.10;;;21.90;25.80;;;;;;2241234;62;20382;-63
2022/02/13 00:31:58;0.00;0.00;0.62;0.00;0.00;0.62;1.83;1.03;;;21.90;25.80;;;;;;2241018;62;20378;-63
2022/02/13 00:34:44;0.00;0.00;0.62;0.00;0.00;0.62;2.17;0.90;;;21.90;25.70;;;;;;2241437;62;20362;-61
2022/02/13 00:37:29;0.00;0.00;0.62;0.00;0.00;0.62;1.50;1.00;;;21.90;25.80;;;;;;2241805;62;20379;-60
2022/02/13 00:40:13;0.00;0.00;0.62;0.00;0.00;0.62;2.03;1.00;;;21.90;25.80;;;;;;2243652;61;20386;-64
2022/02/13 00:42:58;0.00;0.00;0.62;0.00;0.00;0.62;2.83;1.07;;;21.90;25.80;;;;;;2241527;62;20403;-63
2022/02/13 00:45:43;0.00;0.00;0.62;0.00;0.00;0.62;2.07;1.10;;;21.90;25.80;;;;;;2241682;62;20435;-65
2022/02/13 00:48:29;0.00;0.00;0.62;0.00;0.00;0.62;1.30;0.80;;;21.90;25.80;;;;;;2240859;62;20418;-62
2022/02/13 00:51:13;0.00;0.00;0.62;0.00;0.00;0.62;1.60;1.10;;;21.90;25.80;;;;;;2241744;62;20363;-62
2022/02/13 00:54:01;0.00;0.00;0.62;0.00;0.00;0.62;2.03;1.13;;;21.90;25.90;;;;;;2241494;62;20734;-62
2022/02/13 00:56:46;0.00;0.00;0.62;0.00;0.00;0.62;1.80;1.10;;;21.90;25.90;;;;;;2242009;62;20363;-62
2022/02/13 00:59:33;0.00;0.00;0.62;0.00;0.00;0.62;3.07;1.10;;;21.90;25.90;;;;;;2241782;62;20745;-62
2022/02/13 01:02:18;0.00;0.00;0.62;0.00;0.00;0.62;2.07;1.17;;;21.90;25.90;;;;;;2241634;62;20379;-62
2022/02/13 01:05:04;0.00;0.00;0.62;0.00;0.00;0.62;1.37;0.87;;;21.90;26.00;;;;;;2242082;62;20378;-62
2022/02/13 01:07:49;0.00;0.00;0.62;0.00;0.00;0.62;1.90;1.00;;;22.00;26.00;;;;;;2241864;62;20425;-62
2022/02/13 01:10:34;0.00;0.00;0.62;0.00;0.00;0.62;1.50;0.87;;;21.90;25.90;;;;;;2241528;62;20366;-62
2022/02/13 01:13:18;0.00;0.00;0.62;0.00;0.00;0.62;1.60;1.03;;;21.90;25.90;;;;;;2241512;62;20389;-62
2022/02/13 01:16:03;0.00;0.00;0.62;0.00;0.00;0.62;1.30;0.80;;;21.90;25.90;;;;;;2242022;62;20367;-62
2022/02/13 01:18:48;0.00;0.00;0.62;0.00;0.00;0.62;2.07;1.13;;;21.90;25.90;;;;;;2241440;62;20918;-63
2022/02/13 01:21:34;0.00;0.00;0.62;0.00;0.00;0.62;2.30;1.10;;;21.90;25.90;;;;;;2241452;62;20414;-62
2022/02/13 01:24:19;0.00;0.00;0.62;0.00;0.00;0.62;2.07;1.27;;;21.90;25.90;;;;;;2241643;62;20733;-62
2022/02/13 01:27:04;0.00;0.00;0.62;0.00;0.00;0.62;1.90;1.00;;;21.90;25.90;;;;;;2241747;62;20419;-62
2022/02/13 01:29:48;0.00;0.00;0.62;0.00;0.00;0.62;1.73;1.07;;;21.90;25.90;;;;;;2244179;61;20406;-63
2022/02/13 01:32:33;0.00;0.00;0.62;0.00;0.00;0.62;1.80;1.07;;;21.90;25.80;;;;;;2241493;62;20365;-62
2022/02/13 01:35:18;0.00;0.00;0.62;0.00;0.00;0.62;1.60;1.00;;;21.90;25.80;;;;;;2241113;61;20443;-61
2022/02/13 01:38:04;0.00;0.00;0.62;0.00;0.00;0.62;2.60;1.17;;;21.90;25.80;;;;;;2241939;62;20390;-62
2022/02/13 01:40:49;0.00;0.00;0.62;0.00;0.00;0.62;1.70;1.00;;;21.90;25.80;;;;;;2241869;62;20390;-63
2022/02/13 01:43:33;0.00;0.00;0.62;0.00;0.00;0.62;1.43;0.77;;;21.90;25.80;;;;;;2241417;62;20366;-62
2022/02/13 01:46:18;0.00;0.00;0.62;0.00;0.00;0.62;1.93;0.97;;;21.90;25.80;;;;;;2241409;62;20807;-62
2022/02/13 01:49:02;0.00;0.00;0.62;0.00;0.00;0.62;2.53;1.40;;;21.90;25.80;;;;;;2241441;62;20807;-62
2022/02/13 01:51:47;0.00;0.00;0.62;0.00;0.00;0.62;1.80;1.13;;;21.90;25.80;;;;;;2241700;62;20390;-62
2022/02/13 01:54:34;0.00;0.00;0.62;0.00;0.00;0.62;2.10;1.20;;;21.90;25.80;;;;;;2243536;61;20392;-62
2022/02/13 01:57:19;0.00;0.00;0.62;0.00;0.00;0.62;1.90;1.00;;;21.90;25.80;;;;;;2241208;62;20577;-64
2022/02/13 02:00:06;0.00;0.00;0.62;0.00;0.00;0.62;1.67;1.03;;;21.90;25.80;;;;;;2241966;62;20599;-64
2022/02/13 02:02:56;0.00;0.00;0.62;0.00;0.00;0.62;3.07;1.57;;;21.90;25.70;;;;;;2241423;62;20398;-64
2022/02/13 02:05:42;0.00;0.00;0.62;0.00;0.00;0.62;3.70;1.63;;;21.80;25.50;;;;;;2241465;62;20741;-63
2022/02/13 02:08:27;0.00;0.00;0.62;0.00;0.00;0.62;2.37;1.30;;;21.80;25.40;;;;;;2241437;62;20748;-63
2022/02/13 02:11:13;0.00;0.00;0.62;0.00;0.00;0.62;3.03;1.90;;;21.80;25.20;;;;;;2243761;61;20406;-63
2022/02/13 02:13:58;0.00;0.00;0.62;0.00;0.00;0.62;2.27;1.60;;;21.70;25.00;;;;;;2241560;62;20688;-64
2022/02/13 02:16:43;0.00;0.00;0.62;0.00;0.00;0.62;2.37;1.80;;;21.70;24.90;;;;;;2241151;62;20367;-63
2022/02/13 02:19:31;0.00;0.00;0.62;0.00;0.00;0.62;2.37;1.80;;;21.60;24.60;;;;;;2241170;62;20634;-63
2022/02/13 02:22:16;0.00;0.00;0.62;0.00;0.00;0.62;2.73;1.60;;;21.60;24.40;;;;;;2241977;62;20637;-64
2022/02/13 02:25:03;0.00;0.00;0.62;0.00;0.00;0.62;3.77;1.93;;;21.50;24.10;;;;;;2241276;62;20399;-63
2022/02/13 02:27:47;0.00;0.00;0.62;0.00;0.00;0.62;3.13;1.87;;;21.50;24.00;;;;;;2241081;62;20366;-63
2022/02/13 02:30:32;0.00;0.00;0.62;0.00;0.00;0.62;2.80;2.07;;;21.40;23.70;;;;;;2241398;62;20431;-64
2022/02/13 02:33:19;0.00;0.00;0.62;0.00;0.00;0.62;2.67;2.20;;;21.30;23.50;;;;;;2241463;62;20357;-63
2022/02/13 02:36:12;0.00;0.00;0.62;0.00;0.00;0.62;2.47;1.83;;;21.20;23.40;;;;;;2241493;62;20394;-63
2022/02/13 02:38:57;0.00;0.00;0.62;0.00;0.00;0.62;2.80;1.93;;;21.20;23.30;;;;;;2241045;62;20390;-63
2022/02/13 02:41:43;0.00;0.00;0.62;0.00;0.00;0.62;2.47;1.77;;;21.10;23.30;;;;;;2241267;62;20732;-63
2022/02/13 02:44:28;0.00;0.00;0.62;0.00;0.00;0.62;2.57;1.90;;;21.10;23.40;;;;;;2241776;62;20370;-63
2022/02/13 02:47:13;0.00;0.00;0.62;0.00;0.00;0.62;2.73;2.23;;;21.00;23.30;;;;;;2241234;62;20378;-63
2022/02/13 02:49:57;0.00;0.00;0.62;0.00;0.00;0.62;2.40;1.90;;;21.00;23.20;;;;;;2242092;62;20746;-63
2022/02/13 02:52:42;0.00;0.00;0.62;0.00;0.00;0.62;2.20;1.97;;;20.90;23.00;;;;;;2242001;62;20726;-63
2022/02/13 02:55:26;0.00;0.00;0.62;0.00;0.00;0.62;3.70;2.40;;;20.80;23.00;;;;;;2241980;62;20378;-63
2022/02/13 02:58:12;0.00;0.00;0.62;0.00;0.00;0.62;3.07;2.27;;;20.80;23.00;;;;;;2242046;62;20382;-63
2022/02/13 03:00:57;0.00;0.00;0.62;0.00;0.00;0.62;4.30;2.13;;;20.70;23.10;;;;;;2242046;62;20453;-64
2022/02/13 03:03:42;0.00;0.00;0.62;0.00;0.00;0.62;3.43;1.77;;;20.70;23.20;;;;;;2241993;62;20387;-64
2022/02/13 03:06:27;0.00;0.00;0.62;0.00;0.00;0.62;3.43;2.00;;;20.70;23.20;;;;;;2242341;62;20588;-64
2022/02/13 03:09:11;0.00;0.00;0.62;0.00;0.00;0.62;3.30;2.00;;;20.60;23.30;;;;;;2241891;62;20381;-61
2022/02/13 03:11:56;0.00;0.00;0.62;0.00;0.00;0.62;3.70;2.37;;;20.60;23.30;;;;;;2241882;62;20387;-63
2022/02/13 03:14:42;0.00;0.00;0.62;0.00;0.00;0.62;4.40;2.30;;;20.60;23.30;;;;;;2241894;62;20393;-62
2022/02/13 03:17:27;0.00;0.00;0.62;0.00;0.00;0.62;2.70;2.10;;;20.60;23.30;;;;;;2242145;62;20450;-63
2022/02/13 03:20:12;0.00;0.00;0.62;0.00;0.00;0.62;2.77;2.17;;;20.50;23.30;;;;;;2241999;62;20363;-64
2022/02/13 03:22:56;0.00;0.00;0.62;0.00;0.00;0.62;3.63;2.50;;;20.50;23.20;;;;;;2241994;62;20399;-64
2022/02/13 03:25:41;0.00;0.00;0.62;0.00;0.00;0.62;3.60;2.80;;;20.50;23.10;;;;;;2242225;62;20365;-62
2022/02/13 03:28:26;0.00;0.00;0.62;0.00;0.00;0.62;4.53;2.33;;;20.50;23.00;;;;;;2242233;62;20398;-62
2022/02/13 03:31:12;0.00;0.00;0.62;0.00;0.00;0.62;3.40;2.30;;;20.40;23.00;;;;;;2241809;62;20694;-62
2022/02/13 03:33:56;0.00;0.00;0.62;0.00;0.00;0.62;2.70;2.10;;;20.40;22.80;;;;;;2241621;62;20374;-63
2022/02/13 03:36:41;0.00;0.00;0.62;0.00;0.00;0.62;3.07;2.40;;;20.30;22.70;;;;;;2242295;62;20362;-62
2022/02/13 03:39:28;0.00;0.00;0.62;0.00;0.00;0.62;4.90;2.60;;;20.30;22.60;;;;;;2242237;62;20389;-62
2022/02/13 03:42:13;0.00;0.00;0.62;0.00;0.00;0.62;3.73;2.43;;;20.20;22.50;;;;;;2241989;62;20411;-63
2022/02/13 03:44:57;0.00;0.00;0.62;0.00;0.00;0.62;5.13;2.70;;;20.20;22.40;;;;;;2241932;62;20592;-63
2022/02/13 03:47:43;0.00;0.00;0.62;0.00;0.00;0.62;3.47;2.80;;;20.10;22.30;;;;;;2241892;62;20418;-63
2022/02/13 03:50:29;0.00;0.00;0.62;0.00;0.00;0.62;3.73;2.83;;;20.10;22.30;;;;;;2242399;62;20366;-63
2022/02/13 03:53:13;0.00;0.00;0.62;0.00;0.00;0.62;3.73;3.03;;;20.00;22.20;;;;;;2241492;62;20646;-63
2022/02/13 03:55:58;0.00;0.00;0.62;0.00;0.00;0.62;3.67;2.10;;;19.90;22.00;;;;;;2241560;62;20778;-63
2022/02/13 03:58:42;0.00;0.00;0.62;0.00;0.00;0.62;2.80;2.10;;;19.90;22.20;;;;;;2242151;62;20382;-63
2022/02/13 04:01:26;0.00;0.00;0.62;0.00;0.00;0.62;3.37;3.07;;;19.80;22.20;;;;;;2242022;62;20390;-63
2022/02/13 04:04:12;0.00;0.00;0.62;0.00;0.00;0.62;4.20;2.43;;;19.80;22.80;;;;;;2241868;62;20366;-63
2022/02/13 04:06:57;0.00;0.00;0.62;0.00;0.00;0.62;3.43;2.50;;;19.70;22.20;;;;;;2241788;62;20831;-63
2022/02/13 04:09:42;0.00;0.00;0.62;0.00;0.00;0.62;4.43;2.50;;;19.70;22.20;;;;;;2241852;62;20734;-63
2022/02/13 04:12:26;0.00;0.00;0.62;0.00;0.00;0.62;2.90;2.07;;;19.70;22.10;;;;;;2242123;62;20787;-63
2022/02/13 04:15:12;0.00;0.00;0.62;0.00;0.00;0.62;2.93;2.43;;;19.60;21.90;;;;;;2241520;62;20706;-63
2022/02/13 04:17:56;0.00;0.00;0.62;0.00;0.00;0.62;3.90;2.80;;;19.60;21.90;;;;;;2243903;61;20734;-63
2022/02/13 04:20:42;0.00;0.00;0.62;0.00;0.00;0.62;5.07;2.20;;;19.60;21.90;;;;;;2242354;62;20382;-63
2022/02/13 04:23:29;0.00;0.00;0.62;0.00;0.00;0.62;3.33;2.70;;;19.50;21.80;;;;;;2241523;62;20379;-62
2022/02/13 04:26:13;0.00;0.00;0.62;0.00;0.00;0.62;2.83;2.30;;;19.40;21.70;;;;;;2241706;62;20363;-62
2022/02/13 04:28:58;0.00;0.00;0.62;0.00;0.00;0.62;3.83;2.80;;;19.40;21.70;;;;;;2241656;62;20650;-62
2022/02/13 04:31:43;0.00;0.00;0.62;0.00;0.00;0.62;3.73;2.30;;;19.30;21.70;;;;;;2241784;62;20358;-62
2022/02/13 04:34:27;0.00;0.00;0.62;0.00;0.00;0.62;3.20;1.90;;;19.30;21.80;;;;;;2242080;62;20357;-62
2022/02/13 04:37:14;0.00;0.00;0.62;0.00;0.00;0.62;2.20;1.80;;;19.30;22.00;;;;;;2241248;62;20358;-63
2022/02/13 04:39:58;0.00;0.00;0.62;0.00;0.00;0.62;2.60;1.87;;;19.20;22.00;;;;;;2241705;62;20767;-63
2022/02/13 04:42:43;0.00;0.00;0.62;0.00;0.00;0.62;3.40;2.50;;;19.30;22.20;;;;;;2242270;62;20370;-62
2022/02/13 04:45:28;0.00;0.00;0.62;0.00;0.00;0.62;2.47;2.20;;;19.20;22.20;;;;;;2241442;62;20418;-61
2022/02/13 04:48:12;0.00;0.00;0.62;0.00;0.00;0.62;2.80;2.30;;;19.20;22.20;;;;;;2241462;62;20405;-62
2022/02/13 04:50:56;0.00;0.00;0.62;0.00;0.00;0.62;3.47;2.20;;;19.20;22.30;;;;;;2241636;62;20358;-62
2022/02/13 04:53:42;0.00;0.00;0.62;0.00;0.00;0.62;2.60;2.20;;;19.20;22.40;;;;;;2241731;62;20363;-62
2022/02/13 04:56:27;0.00;0.00;0.62;0.00;0.00;0.62;2.30;1.60;;;19.20;22.40;;;;;;2241555;62;20406;-62
2022/02/13 04:59:12;0.00;0.00;0.62;0.00;0.00;0.62;4.30;2.07;;;19.30;22.60;;;;;;2238910;62;20398;-62
2022/02/13 05:01:56;0.00;0.00;0.62;0.00;0.00;0.62;3.03;2.27;;;19.20;22.50;;;;;;2239486;62;20770;-62
2022/02/13 05:04:41;0.00;0.00;0.62;0.00;0.00;0.62;2.40;2.00;;;19.30;22.60;;;;;;2242066;62;20366;-61
2022/02/13 05:07:25;0.00;0.00;0.62;0.00;0.00;0.62;2.90;1.80;;;19.30;22.60;;;;;;2241288;62;20492;-63
2022/02/13 05:10:11;0.00;0.00;0.62;0.00;0.00;0.62;4.20;2.20;;;19.30;22.70;;;;;;2241656;62;20362;-63
2022/02/13 05:12:56;0.00;0.00;0.62;0.00;0.00;0.62;4.77;2.50;;;19.30;22.70;;;;;;2241807;62;20374;-62
2022/02/13 05:15:40;0.00;0.00;0.62;0.00;0.00;0.62;2.47;1.83;;;19.30;22.70;;;;;;2241866;62;20726;-62
2022/02/13 05:18:25;0.00;0.00;0.62;0.00;0.00;0.62;3.03;2.60;;;19.30;22.70;;;;;;2241527;62;20411;-61
2022/02/13 05:21:10;0.00;0.00;0.62;0.00;0.00;0.62;3.63;2.00;;;19.30;22.70;;;;;;2241559;62;20603;-61
2022/02/13 05:23:55;0.00;0.00;0.62;0.00;0.00;0.62;2.60;1.90;;;19.30;22.70;;;;;;2241983;62;20379;-62
2022/02/13 05:26:41;0.00;0.00;0.62;0.00;0.00;0.62;3.80;2.20;;;19.40;22.80;;;;;;2241813;62;20394;-61
2022/02/13 05:29:25;0.00;0.00;0.62;0.00;0.00;0.62;2.50;2.30;;;19.30;22.70;;;;;;2241370;62;20393;-62
2022/02/13 05:32:10;0.00;0.00;0.62;0.00;0.00;0.62;2.83;2.27;;;19.30;22.60;;;;;;2241472;62;20390;-62
2022/02/13 05:34:54;0.00;0.00;0.62;0.00;0.00;0.62;3.10;2.00;;;19.30;22.50;;;;;;2242051;62;20418;-61
2022/02/13 05:37:39;0.00;0.00;0.62;0.00;0.00;0.62;3.67;2.50;;;19.30;22.50;;;;;;2241731;62;20443;-62
2022/02/13 05:40:23;0.00;0.00;0.62;0.00;0.00;0.62;4.90;2.90;;;19.30;22.40;;;;;;2241361;62;20709;-61
2022/02/13 05:43:10;0.00;0.00;0.62;0.00;0.00;0.62;5.00;3.20;;;19.20;22.20;;;;;;2241845;62;20698;-61
2022/02/13 05:45:55;0.00;0.00;0.62;0.00;0.00;0.62;4.90;2.93;;;19.20;22.10;;;;;;2241080;62;20355;-62
2022/02/13 05:48:40;0.00;0.00;0.62;0.00;0.00;0.62;4.10;3.13;;;19.10;22.00;;;;;;2241619;62;20754;-63
2022/02/13 05:51:26;0.00;0.00;0.62;0.00;0.00;0.62;5.00;2.93;;;19.10;21.90;;;;;;2241367;62;20362;-62
2022/02/13 05:54:11;0.00;0.00;0.62;0.00;0.00;0.62;3.27;2.63;;;19.00;21.80;;;;;;2241170;62;20394;-61
2022/02/13 05:56:55;0.00;0.00;0.62;0.00;0.00;0.62;4.23;3.40;;;18.90;21.80;;;;;;2241983;62;20952;-61
2022/02/13 05:59:41;0.00;0.00;0.62;0.00;0.00;0.62;4.10;3.03;;;18.90;21.90;;;;;;2241379;62;20738;-62
2022/02/13 06:02:25;0.00;0.00;0.62;0.00;0.00;0.62;3.10;2.33;;;18.80;21.80;;;;;;2241285;62;20410;-61
2022/02/13 06:05:10;0.00;0.00;0.62;0.00;0.00;0.62;3.87;2.43;;;18.80;21.80;;;;;;2241566;62;20391;-62
2022/02/13 06:07:54;0.00;0.00;0.62;0.00;0.00;0.62;3.80;2.90;;;18.80;21.90;;;;;;2241184;62;20409;-63
2022/02/13 06:10:39;0.00;0.00;0.62;0.00;0.00;0.62;2.67;2.30;;;18.80;22.00;;;;;;2241742;62;20359;-61
2022/02/13 06:13:23;0.00;0.00;0.62;0.00;0.00;0.62;7.83;2.67;;;18.70;22.00;;;;;;2240853;62;20426;-61
2022/02/13 06:16:09;0.00;0.00;0.62;0.00;0.00;0.62;3.07;2.30;;;18.70;22.00;;;;;;2241248;62;20359;-60
2022/02/13 06:18:54;0.00;0.00;0.62;0.00;0.00;0.62;2.23;2.03;;;18.70;22.10;;;;;;2241930;62;20793;-61
2022/02/13 06:21:39;0.00;0.00;0.62;0.00;0.00;0.62;4.73;2.73;;;18.70;22.20;;;;;;2241170;62;20422;-62
2022/02/13 06:24:23;0.00;0.00;0.62;0.00;0.00;0.62;3.50;2.20;;;18.70;22.20;;;;;;2241422;62;20407;-61
2022/02/13 06:27:08;0.00;0.00;0.62;0.00;0.00;0.62;4.17;2.87;;;18.70;22.80;;;;;;2241266;62;20455;-61
2022/02/13 06:29:52;0.00;0.00;0.62;0.00;0.00;0.62;2.80;2.50;;;18.70;22.30;;;;;;2241645;62;20714;-61
2022/02/13 06:32:38;0.00;0.00;0.62;0.00;0.00;0.62;3.10;2.60;;;18.70;22.20;;;;;;2241609;62;20738;-61
2022/02/13 06:35:24;0.00;0.00;0.62;0.00;0.00;0.62;4.50;3.17;;;18.70;22.20;;;;;;2241252;62;20361;-62
2022/02/13 06:38:10;0.00;0.00;0.62;0.00;0.00;0.62;3.23;2.90;;;18.60;21.90;;;;;;2241494;62;20382;-60
2022/02/13 06:40:55;0.00;0.00;0.62;0.00;0.00;0.62;3.70;2.70;;;18.50;21.70;;;;;;2241801;62;20430;-62
2022/02/13 06:43:39;0.00;0.00;0.62;0.00;0.00;0.62;3.77;2.77;;;18.50;21.70;;;;;;2241257;62;20763;-61
2022/02/13 06:46:24;0.00;0.00;0.62;0.00;0.00;0.62;5.13;2.70;;;18.50;21.80;;;;;;2241435;61;20663;-62
2022/02/13 06:49:10;0.00;0.00;0.62;0.00;0.00;0.62;3.90;2.63;;;18.40;21.80;;;;;;2241557;62;20413;-62
2022/02/13 06:51:55;0.00;0.00;0.62;0.00;0.00;0.62;3.77;2.43;;;18.40;21.80;;;;;;2241584;62;20347;-62
2022/02/13 06:54:39;0.00;0.00;0.62;0.00;0.00;0.62;2.60;2.30;;;18.40;21.90;;;;;;2241315;62;20402;-60
2022/02/13 06:57:24;0.00;0.00;0.62;0.00;0.00;0.62;2.47;2.17;;;18.40;22.00;;;;;;2241265;62;20434;-62
2022/02/13 07:00:10;0.00;0.00;0.62;0.00;0.00;0.62;2.80;2.23;;;18.30;22.00;;;;;;2241863;62;20362;-62
2022/02/13 07:02:54;0.00;0.00;0.62;0.00;0.00;0.62;3.90;2.43;;;18.30;22.00;;;;;;2241711;62;20362;-62
2022/02/13 07:05:40;0.00;0.00;0.62;0.00;0.00;0.62;3.53;2.63;;;18.30;22.00;;;;;;2241123;62;20718;-60
2022/02/13 07:08:25;0.00;0.00;0.62;0.00;0.00;0.62;4.17;3.30;;;18.30;22.00;;;;;;2241061;62;20406;-61
2022/02/13 07:11:09;0.00;0.00;0.62;0.00;0.00;0.62;4.60;3.30;;;18.30;21.90;;;;;;2241776;62;20415;-61
2022/02/13 07:13:54;0.00;0.00;0.62;0.00;0.00;0.62;4.60;3.37;;;18.30;21.80;;;;;;2241117;62;20359;-61
2022/02/13 07:16:39;0.00;0.00;0.62;0.00;0.00;0.62;5.47;2.93;;;18.20;21.70;;;;;;2241174;62;20714;-63
2022/02/13 07:19:23;0.00;0.00;0.62;0.00;0.00;0.62;3.70;2.40;;;18.20;21.80;;;;;;2241385;62;20385;-64
2022/02/13 07:22:09;0.00;0.00;0.62;0.00;0.00;0.62;3.10;2.60;;;18.20;21.80;;;;;;2241244;62;20470;-62
2022/02/13 07:24:53;0.00;0.00;0.62;0.00;0.00;0.62;3.50;2.87;;;18.20;21.90;;;;;;2241562;62;20362;-62
2022/02/13 07:27:39;0.00;0.00;0.62;0.00;0.00;0.62;3.00;2.60;;;18.20;21.90;;;;;;2240857;62;20394;-62
2022/02/13 07:30:23;0.00;0.00;0.62;0.00;0.00;0.62;3.87;3.30;;;18.20;21.90;;;;;;2241157;62;20389;-62
2022/02/13 07:33:08;0.00;0.00;0.62;0.00;0.00;0.62;3.80;2.67;;;18.20;21.90;;;;;;2241707;62;20481;-62
2022/02/13 07:35:53;0.00;0.00;0.62;0.00;0.00;0.62;6.30;2.70;;;18.10;21.90;;;;;;2241704;62;20366;-63
2022/02/13 07:38:39;0.00;0.00;0.62;0.00;0.00;0.62;3.03;2.60;;;18.10;22.00;;;;;;2241799;62;20377;-62
2022/02/13 07:41:26;0.00;0.00;0.62;0.00;0.00;0.62;3.43;2.60;;;18.10;22.00;;;;;;2241813;62;20385;-63
2022/02/13 07:44:13;0.00;0.00;0.62;0.00;0.00;0.62;2.83;2.30;;;18.10;22.00;;;;;;2244325;61;20648;-62
2022/02/13 07:46:57;0.00;0.00;0.62;0.00;0.00;0.62;2.93;2.10;;;18.10;22.00;;;;;;2242016;62;20381;-63
2022/02/13 07:49:42;0.00;0.00;0.62;0.00;0.00;0.62;3.87;2.77;;;18.20;22.20;;;;;;2241716;62;21028;-63
2022/02/13 07:52:26;0.00;0.00;0.62;0.00;0.00;0.62;3.53;2.60;;;18.20;22.20;;;;;;2241827;62;20475;-62
2022/02/13 07:55:12;0.00;0.00;0.62;0.00;0.00;0.62;4.30;2.67;;;18.20;22.20;;;;;;2242157;62;20377;-62
2022/02/13 07:57:57;0.00;0.00;0.62;0.00;0.00;0.62;4.47;3.20;;;18.20;22.20;;;;;;2241561;62;20366;-63
2022/02/13 08:00:41;0.00;0.00;0.62;0.00;0.00;0.62;3.17;2.80;;;18.20;22.30;;;;;;2241900;62;20622;-62
2022/02/13 08:03:26;0.00;0.00;0.62;0.00;0.00;0.62;3.60;2.70;;;18.10;22.20;;;;;;2241796;62;20431;-62
2022/02/13 08:06:10;0.00;0.00;0.62;0.00;0.00;0.62;4.00;2.50;;;18.20;22.30;;;;;;2242068;62;20362;-62
2022/02/13 08:08:55;0.00;0.00;0.62;0.00;0.00;0.62;2.97;2.47;;;18.20;22.20;;;;;;2241834;62;20390;-62
2022/02/13 08:11:41;0.00;0.00;0.62;0.00;0.00;0.62;3.40;2.83;;;18.20;22.30;;;;;;2241641;62;20430;-61
2022/02/13 08:14:25;0.00;0.00;0.62;0.00;0.00;0.62;4.13;2.77;;;18.20;22.20;;;;;;2241780;62;20373;-61
2022/02/13 08:17:10;0.00;0.00;0.62;0.00;0.00;0.62;3.53;3.13;;;18.20;22.20;;;;;;2241911;62;20358;-62
2022/02/13 08:19:54;0.00;0.00;0.62;0.00;0.00;0.62;4.30;3.07;;;18.20;22.10;;;;;;2241790;62;20463;-61
2022/02/13 08:22:40;0.00;0.00;0.62;0.00;0.00;0.62;5.77;3.13;;;18.20;22.10;;;;;;2241679;62;20422;-61
2022/02/13 08:25:25;0.00;0.00;0.62;0.00;0.00;0.62;3.90;2.40;;;18.10;22.10;;;;;;2241932;62;20381;-61
2022/02/13 08:28:11;0.00;0.00;0.62;0.00;0.00;0.62;3.90;2.50;;;18.20;22.20;;;;;;2242321;62;20381;-62
2022/02/13 08:30:56;0.00;0.00;0.62;0.00;0.00;0.62;3.20;2.57;;;18.20;22.30;;;;;;2241902;62;20749;-61
2022/02/13 08:33:41;0.00;0.00;0.62;0.00;0.00;0.62;3.03;2.10;;;18.20;22.40;;;;;;2241843;62;20374;-61
2022/02/13 08:36:26;0.00;0.00;0.62;0.00;0.00;0.62;3.17;2.07;;;18.20;22.40;;;;;;2242053;62;20407;-61
2022/02/13 08:39:10;0.00;0.00;0.62;0.00;0.00;0.62;3.00;2.37;;;18.30;22.50;;;;;;2242159;62;20383;-61
2022/02/13 08:41:55;0.00;0.00;0.62;0.00;0.00;0.62;4.57;2.53;;;18.30;22.60;;;;;;2241753;62;20752;-63
2022/02/13 08:44:40;0.00;0.00;0.62;0.00;0.00;0.62;5.83;2.30;;;18.30;22.60;;;;;;2241753;61;20722;-63
2022/02/13 08:47:25;0.00;0.00;0.62;0.00;0.00;0.62;4.03;2.50;;;18.40;22.80;;;;;;2242047;62;20385;-62
2022/02/13 08:50:10;0.00;0.00;0.62;0.00;0.00;0.62;2.60;1.87;;;18.40;22.80;;;;;;2242338;62;20631;-63
2022/02/13 08:52:54;0.00;0.00;0.62;0.00;0.00;0.62;3.47;2.10;;;18.40;22.80;;;;;;2241725;62;20362;-62
2022/02/13 08:55:39;0.00;0.00;0.62;0.00;0.00;0.62;3.20;2.10;;;18.50;23.40;;;;;;2241692;62;20362;-62
2022/02/13 08:58:24;0.00;0.00;0.62;0.00;0.00;0.62;2.60;1.93;;;18.50;22.90;;;;;;2241868;62;20410;-63
2022/02/13 09:01:10;0.00;0.00;0.62;0.00;0.00;0.62;2.03;1.60;;;18.60;23.00;;;;;;2242064;62;20382;-63
2022/02/13 09:03:54;0.00;0.00;0.62;0.00;0.00;0.62;5.20;1.67;;;18.60;23.00;;;;;;2241676;62;20367;-62
2022/02/13 09:06:39;0.00;0.00;0.62;0.00;0.00;0.62;2.93;1.90;;;18.60;23.00;;;;;;2241545;62;20394;-61
2022/02/13 09:09:23;0.00;0.00;0.62;0.00;0.00;0.62;3.90;2.10;;;18.70;23.10;;;;;;2242068;62;20433;-63
2022/02/13 09:12:08;0.00;0.00;0.62;0.00;0.00;0.62;2.10;1.73;;;18.70;23.10;;;;;;2241831;62;20743;-61
2022/02/13 09:14:52;0.00;0.00;0.62;0.00;0.00;0.62;3.23;1.90;;;18.70;23.10;;;;;;2241811;62;20391;-62
2022/02/13 09:17:38;0.00;0.00;0.62;0.00;0.00;0.62;2.33;1.67;;;18.80;23.20;;;;;;2241410;62;20402;-62
2022/02/13 09:20:23;0.00;0.00;0.62;0.00;0.00;0.62;3.37;1.70;;;18.80;23.20;;;;;;2241861;62;20366;-62
2022/02/13 09:23:07;0.00;0.00;0.62;0.00;0.00;0.62;2.60;2.00;;;18.80;23.20;;;;;;2241862;62;20395;-61
2022/02/13 09:25:52;0.00;0.00;0.62;0.00;0.00;0.62;2.27;1.40;;;18.90;23.30;;;;;;2241643;62;20623;-62
2022/02/13 09:28:37;0.00;0.00;0.62;0.00;0.00;0.62;2.60;1.60;;;18.90;23.30;;;;;;2241342;62;20386;-63
2022/02/13 09:31:21;0.00;0.00;0.62;0.00;0.00;0.62;3.50;1.90;;;18.90;23.30;;;;;;2242137;62;20378;-63
2022/02/13 09:34:07;0.00;0.00;0.62;0.00;0.00;0.62;2.40;1.40;;;19.00;23.40;;;;;;2241626;62;20451;-63
2022/02/13 09:36:51;0.00;0.00;0.62;0.00;0.00;0.62;2.00;1.30;;;19.00;23.40;;;;;;2241579;62;20586;-62
2022/02/13 09:39:36;0.00;0.00;0.62;0.00;0.00;0.62;2.07;1.33;;;19.10;23.40;;;;;;2241621;62;20500;-63
2022/02/13 09:42:21;0.00;0.00;0.62;0.00;0.00;0.62;2.50;1.73;;;19.10;23.40;;;;;;2241999;62;20438;-61
2022/02/13 09:45:07;0.00;0.00;0.62;0.00;0.00;0.62;1.90;1.50;;;19.10;23.40;;;;;;2241822;62;20471;-63
2022/02/13 09:47:53;0.00;0.00;0.62;0.00;0.00;0.62;2.90;2.10;;;19.20;23.50;;;;;;2241404;62;20598;-61
2022/02/13 09:50:39;0.00;0.00;0.62;0.00;0.00;0.62;2.73;1.80;;;19.20;23.50;;;;;;2241684;62;20386;-63
2022/02/13 09:53:24;0.00;0.00;0.62;0.00;0.00;0.62;2.90;1.30;;;19.20;23.50;;;;;;2242135;62;20488;-62
2022/02/13 09:56:09;0.00;0.00;0.62;0.00;0.00;0.62;1.70;1.20;;;19.30;23.50;;;;;;2241392;62;20382;-62
2022/02/13 09:58:54;0.00;0.00;0.62;0.00;0.00;0.62;1.70;1.33;;;19.30;23.50;;;;;;2241444;62;20390;-63
2022/02/13 10:01:41;0.00;0.00;0.62;0.00;0.00;0.62;1.90;1.43;;;19.30;23.50;;;;;;2241665;62;20389;-64
2022/02/13 10:04:42;0.00;0.00;0.62;0.00;0.00;0.62;2.97;1.70;;;19.40;23.60;;;;;;2242078;62;20486;-61
2022/02/13 10:07:31;0.00;0.00;0.62;0.00;0.00;0.62;2.27;1.53;;;19.40;23.60;;;;;;2241491;62;20362;-62
2022/02/13 10:10:15;0.00;0.00;0.62;0.00;0.00;0.62;2.37;1.63;;;19.50;23.60;;;;;;2241469;62;20595;-62
2022/02/13 10:13:00;0.00;0.00;0.62;0.00;0.00;0.62;2.17;1.23;;;19.50;24.20;;;;;;2241531;62;20362;-62
2022/02/13 10:15:45;0.00;0.00;0.62;0.00;0.00;0.62;2.23;1.63;;;19.50;23.60;;;;;;2241957;62;20370;-61
2022/02/13 10:18:29;0.00;0.00;0.62;0.00;0.00;0.62;2.40;1.50;;;19.60;23.70;;;;;;2241525;62;20382;-61
2022/02/13 10:21:30;0.00;0.00;0.62;0.00;0.00;0.62;2.20;1.60;;;19.60;23.70;;;;;;2241393;62;20466;-63
2022/02/13 10:24:23;0.00;0.00;0.62;0.00;0.00;0.62;1.70;1.20;;;19.70;23.70;;;;;;2241492;62;20385;-62
2022/02/13 10:27:11;0.00;0.00;0.62;0.00;0.00;0.62;2.60;1.23;;;19.70;23.70;;;;;;2241466;62;20398;-62
2022/02/13 10:29:56;0.00;0.00;0.62;0.00;0.00;0.62;1.90;1.23;;;19.70;23.70;;;;;;2241629;62;20402;-61
2022/02/13 10:32:42;0.00;0.00;0.62;0.00;0.00;0.62;2.23;1.60;;;19.80;23.80;;;;;;2241502;62;20782;-63
2022/02/13 10:35:29;0.00;0.00;0.62;0.00;0.00;0.62;2.20;1.60;;;19.80;23.80;;;;;;2241394;62;20426;-63
2022/02/13 10:38:15;0.00;0.00;0.62;0.00;0.00;0.62;1.67;1.30;;;19.80;23.70;;;;;;2241679;62;20499;-63
2022/02/13 10:41:20;0.00;0.00;0.62;0.00;0.00;0.62;2.33;1.40;;;19.90;23.80;;;;;;2241735;62;20430;-62
2022/02/13 10:44:07;0.00;0.00;0.62;0.00;0.00;0.62;1.80;1.40;;;19.90;23.80;;;;;;2241584;62;20457;-62
2022/02/13 10:46:52;0.00;0.00;0.62;0.00;0.00;0.62;2.20;1.60;;;20.00;23.80;;;;;;2241307;62;20371;-63
2022/02/13 10:49:38;0.00;0.00;0.62;0.00;0.00;0.62;1.87;1.33;;;20.00;23.80;;;;;;2242448;62;20588;-62
2022/02/13 10:52:24;0.00;0.00;0.62;0.00;0.00;0.62;1.83;1.30;;;20.10;23.80;;;;;;2242396;62;20556;-63